Au Sable, Michigan
Current Conditions -  °F | °C
As of 3:53 PM on Saturday 20 Dec 2014 (Local Time) from KOSC Reporting Station
Broken Clouds Broken Clouds  
Wind Chill: -2°   Ceiling: 2300
Heat Index: -2°   Visibility: 10mi
Dew Point: -5°   Wind: 3mph
Humidity: 76%   Direction: 170°S
Pressure: 30.26"   Gusts: NA
Location:  44.4539°N, 83.4813°W
Report Text: KOSC 202053Z AUTO 17003KT 10SM BKN023 M01/M05 A3026 RMK AO2 T10151052
Loading
Personal Weather Stations






























Interactive Weather Map New forecast layout! Learn more

10-Day Weather Forecast

Advertisements
Track Severe Weather on mobile